Sault Ste. Marie, Ontario

3:35 PM EDT on September 01, 2015 (GMT -0400)
West End | | Change Station
CLOSE
Current Station
Personal Weather Station
Location: Saut Ste. Marie, ON
Elevation: 597 ft
Nearby Weather Stations

Elev 597 ft 46.52 °N, 84.36 °W | Updated 5 seconds ago

Mostly Cloudy
Mostly Cloudy
88.3 °F
Feels Like 99 °F
N
0.0
Wind Variable Wind from West
Gusts 1.0 mph

Today
High -- | Low -- °F
--% Chance of Precip.
Yesterday
High -- | Low -- °F
Precip. -- in
6:57 AM 8:17 PM
Waning Gibbous, 87% visible
Pressure 29.97 in
Visibility 10.0 miles
Clouds Mostly Cloudy 2600 ft
Heat Index 99 °F
Dew Point 76 °F
Humidity 66%
Rainfall 0.00 in
Snow Depth Not available.
UV 1.4 out of 12
Pollen 10.40 out of 12
Air Quality Not available.
Flu Activity Not available.
METAR KCIU 011915Z AUTO 24006KT 10SM BKN026 28/22 A2997 RMK AO1
Pressure 29.97 in
Visibility 10.0 miles
Clouds Mostly Cloudy 2600 ft
Heat Index 99 °F
Dew Point 76 °F
Humidity 66%
Rainfall 0.00 in
Snow Depth Not available.
UV 1.4 out of 12
Pollen 10.40 out of 12
Air Quality Not available.
Flu Activity Not available.
METAR KCIU 011915Z AUTO 24006KT 10SM BKN026 28/22 A2997 RMK AO1

10-Day Weather Forecast

×

Almanac

Astronomy

Sep. 01, 2015 Rise Set
Actual Time
Civil Twilight
Nautical Twilight
Astronomical Twilight
Moon
Length of Visible Light
Length of Day
Tomorrow will be .
, % of the Moon is Illuminated

Today's Extremes

Country Highs Country Lows

Community

WunderPhotos

Upload Photos

1,851,597 photos uploaded!

WunderBlogs® & News

Nearby

Air Quality

  Air Quality AQ Index Pollutant
Not available.

Snow Depth

Station Depth Elevation

Earthquake Activity

City Distance Mag. Time & Date
Minimum magnitude displayed is 2.5.

Coastal Water Temperatures

Place Temperature

Stations

Nearby Weather Stations

Station Location Temp. Windchill Dew Point Humidity Wind Precip. Elev Updated Type